Time;durP1;ratioP1;P1;durP2;ratioP2;P2;SDS_P1;SDS_P2;PMS_P1;PMS_P2;Temp;Humidity;BMP_temperature;BMP_pressure;BME280_temperature;BME280_humidity;BME280_pressure;Samples;Min_cycle;Max_cycle;Signal;HPM_P1;HPM_P2
2023/12/11 00:01:49;;;;;;;1.77;0.63;;;;;;;;;;4951957;29;20050;-54
2023/12/11 00:04:16;;;;;;;3.80;0.63;;;;;;;;;;4945562;28;20067;-55
2023/12/11 00:06:42;;;;;;;0.85;0.50;;;;;;;;;;4955420;28;20049;-58
2023/12/11 00:09:08;;;;;;;2.45;0.80;;;;;;;;;;4952936;28;20035;-56
2023/12/11 00:11:34;;;;;;;1.60;0.70;;;;;;;;;;4950162;28;20047;-52
2023/12/11 00:14:00;;;;;;;2.53;0.80;;;;;;;;;;4929476;29;20038;-53
2023/12/11 00:16:27;;;;;;;3.00;0.90;;;;;;;;;;4955343;28;20031;-53
2023/12/11 00:18:53;;;;;;;0.73;0.65;;;;;;;;;;4949885;28;20047;-58
2023/12/11 00:21:19;;;;;;;2.25;0.80;;;;;;;;;;4948984;28;20047;-55
2023/12/11 00:23:46;;;;;;;1.60;0.80;;;;;;;;;;4952723;28;20046;-53
2023/12/11 00:26:12;;;;;;;1.00;0.63;;;;;;;;;;4949504;28;20050;-57
2023/12/11 00:28:38;;;;;;;5.20;0.85;;;;;;;;;;4949430;28;20039;-55
2023/12/11 00:31:07;;;;;;;4.82;0.90;;;;;;;;;;4944389;28;20046;-56
2023/12/11 00:33:37;;;;;;;3.55;0.70;;;;;;;;;;4944185;28;20027;-57
2023/12/11 00:36:03;;;;;;;2.65;0.77;;;;;;;;;;4947635;28;20035;-57
2023/12/11 00:38:30;;;;;;;0.93;0.70;;;;;;;;;;4948357;28;20163;-57
2023/12/11 00:40:56;;;;;;;3.20;0.82;;;;;;;;;;4952321;28;20043;-55
2023/12/11 00:43:22;;;;;;;1.60;0.60;;;;;;;;;;4948587;28;20515;-58
2023/12/11 00:45:48;;;;;;;2.28;0.73;;;;;;;;;;4947637;28;20051;-57
2023/12/11 00:48:14;;;;;;;1.20;0.70;;;;;;;;;;4946590;28;20046;-57
2023/12/11 00:50:41;;;;;;;2.40;0.77;;;;;;;;;;4946478;28;20191;-57
2023/12/11 00:53:07;;;;;;;1.05;0.80;;;;;;;;;;4944228;28;20050;-58
2023/12/11 00:55:33;;;;;;;1.65;0.50;;;;;;;;;;4946234;28;20492;-58
2023/12/11 00:57:59;;;;;;;1.42;0.65;;;;;;;;;;4947384;29;20023;-55
2023/12/11 01:00:26;;;;;;;3.97;0.80;;;;;;;;;;4945808;28;20213;-58
2023/12/11 01:02:52;;;;;;;1.30;0.80;;;;;;;;;;4945467;28;20040;-57
2023/12/11 01:05:18;;;;;;;1.38;0.68;;;;;;;;;;4949539;28;20051;-59
2023/12/11 01:07:44;;;;;;;2.53;0.70;;;;;;;;;;4951688;28;20043;-56
2023/12/11 01:10:11;;;;;;;1.80;0.90;;;;;;;;;;4917977;29;20062;-57
2023/12/11 01:12:38;;;;;;;0.98;0.60;;;;;;;;;;4950728;28;20119;-58
2023/12/11 01:15:04;;;;;;;1.35;0.63;;;;;;;;;;4949123;29;20039;-57
2023/12/11 01:17:31;;;;;;;1.75;0.60;;;;;;;;;;4955740;28;20043;-58
2023/12/11 01:19:57;;;;;;;0.90;0.70;;;;;;;;;;4954198;28;20047;-56
2023/12/11 01:22:23;;;;;;;0.63;0.60;;;;;;;;;;4952662;28;20407;-55
2023/12/11 01:24:49;;;;;;;0.90;0.60;;;;;;;;;;4940124;29;20046;-53
2023/12/11 01:27:15;;;;;;;3.58;0.60;;;;;;;;;;4949756;28;20043;-56
2023/12/11 01:29:42;;;;;;;0.70;0.60;;;;;;;;;;4932060;29;20055;-57
2023/12/11 01:32:08;;;;;;;1.15;0.50;;;;;;;;;;4954938;28;20406;-53
2023/12/11 01:34:34;;;;;;;2.28;0.85;;;;;;;;;;4950584;28;20051;-56
2023/12/11 01:37:01;;;;;;;0.77;0.50;;;;;;;;;;4953287;28;20047;-56
2023/12/11 01:39:27;;;;;;;0.70;0.50;;;;;;;;;;4947561;28;20051;-53
2023/12/11 01:41:53;;;;;;;0.65;0.52;;;;;;;;;;4956833;28;20051;-57
2023/12/11 01:44:19;;;;;;;0.60;0.40;;;;;;;;;;4921245;29;20073;-57
2023/12/11 01:46:46;;;;;;;0.57;0.50;;;;;;;;;;4949995;28;20062;-57
2023/12/11 01:49:14;;;;;;;0.60;0.60;;;;;;;;;;4946462;28;20058;-57
2023/12/11 01:51:41;;;;;;;0.80;0.63;;;;;;;;;;4945992;28;20044;-57
2023/12/11 01:54:07;;;;;;;0.40;0.38;;;;;;;;;;4947772;28;20074;-57
2023/12/11 01:56:35;;;;;;;0.82;0.63;;;;;;;;;;4948947;28;20519;-58
2023/12/11 01:59:02;;;;;;;1.13;0.40;;;;;;;;;;4931631;29;20046;-56
2023/12/11 02:01:29;;;;;;;1.45;0.38;;;;;;;;;;4934388;29;20039;-54
2023/12/11 02:03:56;;;;;;;0.68;0.43;;;;;;;;;;4933404;29;20108;-57
2023/12/11 02:06:22;;;;;;;0.40;0.40;;;;;;;;;;4950983;28;20035;-56
2023/12/11 02:08:48;;;;;;;2.05;0.50;;;;;;;;;;4955104;28;20035;-55
2023/12/11 02:11:14;;;;;;;0.90;0.60;;;;;;;;;;4956476;28;20040;-57
2023/12/11 02:13:41;;;;;;;0.73;0.40;;;;;;;;;;4933273;29;20379;-54
2023/12/11 02:16:12;;;;;;;1.65;0.40;;;;;;;;;;4953927;28;20051;-54
2023/12/11 02:18:38;;;;;;;0.40;0.32;;;;;;;;;;4952546;28;20043;-53
2023/12/11 02:21:05;;;;;;;0.52;0.52;;;;;;;;;;4952366;28;20050;-56
2023/12/11 02:23:55;;;;;;;0.40;0.40;;;;;;;;;;4950894;28;20419;-57
2023/12/11 02:26:21;;;;;;;0.40;0.40;;;;;;;;;;4948775;28;20058;-59
2023/12/11 02:28:47;;;;;;;0.32;0.32;;;;;;;;;;4945697;28;20407;-54
2023/12/11 02:31:14;;;;;;;0.40;0.40;;;;;;;;;;4951499;28;20058;-56
2023/12/11 02:33:40;;;;;;;0.95;0.50;;;;;;;;;;4947024;28;20027;-53
2023/12/11 02:36:06;;;;;;;0.40;0.40;;;;;;;;;;4910119;29;20510;-56
2023/12/11 02:38:33;;;;;;;0.30;0.30;;;;;;;;;;4930225;29;20475;-54
2023/12/11 02:40:59;;;;;;;1.02;0.38;;;;;;;;;;4931690;29;20043;-52
2023/12/11 02:43:25;;;;;;;0.73;0.30;;;;;;;;;;4950354;28;20043;-56
2023/12/11 02:45:52;;;;;;;0.43;0.40;;;;;;;;;;4948385;28;20070;-56
2023/12/11 02:48:19;;;;;;;0.85;0.30;;;;;;;;;;4939817;28;20047;-57
2023/12/11 02:50:45;;;;;;;0.50;0.50;;;;;;;;;;4941844;28;20044;-55
2023/12/11 02:53:11;;;;;;;0.32;0.30;;;;;;;;;;4928988;29;20391;-54
2023/12/11 02:55:37;;;;;;;0.30;0.30;;;;;;;;;;4949851;28;20054;-54
2023/12/11 02:58:04;;;;;;;0.40;0.40;;;;;;;;;;4948424;28;20031;-57
2023/12/11 03:00:31;;;;;;;0.30;0.30;;;;;;;;;;4951665;29;20039;-54
2023/12/11 03:02:57;;;;;;;0.35;0.30;;;;;;;;;;4951457;28;20047;-57
2023/12/11 03:05:24;;;;;;;0.40;0.30;;;;;;;;;;4928537;28;20035;-56
2023/12/11 03:07:50;;;;;;;0.40;0.40;;;;;;;;;;4950213;28;20054;-56
2023/12/11 03:10:16;;;;;;;1.67;0.30;;;;;;;;;;4952402;28;20043;-54
2023/12/11 03:12:42;;;;;;;1.05;0.43;;;;;;;;;;4948495;28;20051;-54
2023/12/11 03:15:09;;;;;;;1.40;0.30;;;;;;;;;;4949363;28;20039;-56
2023/12/11 03:17:36;;;;;;;0.55;0.32;;;;;;;;;;4949461;28;20043;-54
2023/12/11 03:20:05;;;;;;;0.30;0.30;;;;;;;;;;4950237;28;20042;-53
2023/12/11 03:22:31;;;;;;;0.40;0.30;;;;;;;;;;4952605;28;20431;-57
2023/12/11 03:24:57;;;;;;;0.38;0.30;;;;;;;;;;4948624;28;20149;-55
2023/12/11 03:27:23;;;;;;;0.40;0.30;;;;;;;;;;4950231;28;20043;-57
2023/12/11 03:29:49;;;;;;;1.30;0.30;;;;;;;;;;4947241;28;20142;-57
2023/12/11 03:32:16;;;;;;;2.65;0.40;;;;;;;;;;4924304;28;20531;-56
2023/12/11 03:34:42;;;;;;;0.40;0.40;;;;;;;;;;4951149;28;20479;-54
2023/12/11 03:37:09;;;;;;;0.28;0.20;;;;;;;;;;4953727;28;20057;-57
2023/12/11 03:39:35;;;;;;;0.30;0.30;;;;;;;;;;4952670;28;20042;-55
2023/12/11 03:42:02;;;;;;;0.43;0.35;;;;;;;;;;4950863;28;20042;-54
2023/12/11 03:44:28;;;;;;;0.30;0.30;;;;;;;;;;4908907;29;20034;-57
2023/12/11 03:46:54;;;;;;;0.30;0.30;;;;;;;;;;4953425;28;20502;-56
2023/12/11 03:49:21;;;;;;;1.52;0.60;;;;;;;;;;4935046;29;20058;-57
2023/12/11 03:51:48;;;;;;;0.45;0.30;;;;;;;;;;4950068;28;20039;-56
2023/12/11 03:54:14;;;;;;;0.63;0.30;;;;;;;;;;4951439;29;20035;-54
2023/12/11 03:56:41;;;;;;;0.68;0.30;;;;;;;;;;4951584;28;20055;-57
2023/12/11 03:59:09;;;;;;;0.30;0.30;;;;;;;;;;4949331;28;20061;-56
2023/12/11 04:01:35;;;;;;;0.40;0.40;;;;;;;;;;4948187;28;20050;-56
2023/12/11 04:04:04;;;;;;;1.58;0.40;;;;;;;;;;4955970;23;20047;31
2023/12/11 04:06:31;;;;;;;;;;;;;;;;;;4894511;29;20047;-56
2023/12/11 04:08:57;;;;;;;2.70;0.55;;;;;;;;;;4900597;29;19938;-59
2023/12/11 04:11:23;;;;;;;0.38;0.38;;;;;;;;;;4879873;29;20036;-58
2023/12/11 04:13:49;;;;;;;1.25;0.40;;;;;;;;;;4897731;29;20044;-56
2023/12/11 04:16:15;;;;;;;1.80;0.40;;;;;;;;;;4913843;29;20043;-55
2023/12/11 04:18:42;;;;;;;1.23;0.40;;;;;;;;;;4925193;29;20047;-54
2023/12/11 04:21:08;;;;;;;0.50;0.45;;;;;;;;;;4930669;29;20044;-56
2023/12/11 04:23:35;;;;;;;0.40;0.40;;;;;;;;;;4895912;29;20031;-56
2023/12/11 04:26:03;;;;;;;1.58;0.50;;;;;;;;;;4915739;29;20046;-52
2023/12/11 04:28:29;;;;;;;1.33;0.60;;;;;;;;;;4913735;29;20032;-57
2023/12/11 04:30:55;;;;;;;1.33;0.40;;;;;;;;;;4931174;29;20043;-58
2023/12/11 04:33:22;;;;;;;1.15;0.50;;;;;;;;;;4913969;29;20050;-56
2023/12/11 04:35:48;;;;;;;1.73;0.60;;;;;;;;;;4929394;29;20055;-54
2023/12/11 04:38:14;;;;;;;1.02;0.50;;;;;;;;;;4929742;29;20039;-52
2023/12/11 04:40:40;;;;;;;0.63;0.47;;;;;;;;;;4931895;29;20043;-55
2023/12/11 04:43:07;;;;;;;1.13;0.52;;;;;;;;;;4931627;29;20047;-55
2023/12/11 04:45:33;;;;;;;3.05;0.63;;;;;;;;;;4912788;29;20040;-55
2023/12/11 04:47:59;;;;;;;2.65;0.60;;;;;;;;;;4913747;29;20070;-56
2023/12/11 04:50:25;;;;;;;2.35;0.82;;;;;;;;;;4915462;29;20047;-57
2023/12/11 04:52:52;;;;;;;2.05;0.70;;;;;;;;;;4889760;29;20037;-56
2023/12/11 04:55:18;;;;;;;0.93;0.50;;;;;;;;;;4936546;29;20048;-56
2023/12/11 04:57:44;;;;;;;1.52;0.50;;;;;;;;;;4900976;29;20609;-54
2023/12/11 05:00:11;;;;;;;0.70;0.50;;;;;;;;;;4918822;29;20499;-55
2023/12/11 05:02:37;;;;;;;1.55;0.60;;;;;;;;;;4921743;29;20024;-54
2023/12/11 05:05:04;;;;;;;1.00;0.80;;;;;;;;;;4919666;29;20044;-54
2023/12/11 05:07:31;;;;;;;2.70;0.80;;;;;;;;;;4908674;29;20035;-57
2023/12/11 05:09:57;;;;;;;1.15;0.70;;;;;;;;;;4921555;29;20371;-55
2023/12/11 05:12:23;;;;;;;3.90;0.98;;;;;;;;;;4933100;29;20047;-54
2023/12/11 05:14:49;;;;;;;1.17;1.08;;;;;;;;;;4936950;29;20036;-56
2023/12/11 05:17:15;;;;;;;1.05;0.60;;;;;;;;;;4938077;29;20032;-54
2023/12/11 05:19:41;;;;;;;2.40;1.00;;;;;;;;;;4924711;29;20284;-57
2023/12/11 05:22:08;;;;;;;2.08;0.50;;;;;;;;;;4922627;29;20050;-58
2023/12/11 05:24:34;;;;;;;1.45;0.98;;;;;;;;;;4918089;29;20043;-57
2023/12/11 05:27:00;;;;;;;1.85;0.60;;;;;;;;;;4917492;29;20043;-56
2023/12/11 05:29:27;;;;;;;2.20;0.60;;;;;;;;;;4913640;29;20051;-55
2023/12/11 05:31:53;;;;;;;1.65;0.93;;;;;;;;;;4937580;29;20043;-57
2023/12/11 05:34:20;;;;;;;1.02;0.52;;;;;;;;;;4933156;29;20428;-56
2023/12/11 05:36:46;;;;;;;0.65;0.50;;;;;;;;;;4917298;29;20042;-55
2023/12/11 05:39:12;;;;;;;1.83;1.00;;;;;;;;;;4921274;29;20035;-58
2023/12/11 05:41:38;;;;;;;1.38;0.60;;;;;;;;;;4921374;29;20046;-57
2023/12/11 05:44:04;;;;;;;1.67;1.05;;;;;;;;;;4935698;29;20039;-57
2023/12/11 05:46:31;;;;;;;2.95;1.00;;;;;;;;;;4919618;29;20031;-57
2023/12/11 05:48:57;;;;;;;2.20;1.25;;;;;;;;;;4920416;29;20047;-54
2023/12/11 05:51:24;;;;;;;2.42;1.00;;;;;;;;;;4919452;29;20046;-56
2023/12/11 05:53:50;;;;;;;1.02;0.50;;;;;;;;;;4938026;29;20040;-59
2023/12/11 05:56:16;;;;;;;3.60;0.75;;;;;;;;;;4903278;29;20399;-55
2023/12/11 05:58:43;;;;;;;2.78;1.25;;;;;;;;;;4922217;29;20042;-59
2023/12/11 06:01:09;;;;;;;2.38;0.70;;;;;;;;;;4904800;29;20055;-56
2023/12/11 06:03:35;;;;;;;2.58;0.70;;;;;;;;;;4933891;29;20055;-56
2023/12/11 06:06:02;;;;;;;0.85;0.60;;;;;;;;;;4916441;29;20042;-54
2023/12/11 06:08:28;;;;;;;1.42;0.70;;;;;;;;;;4902034;29;20054;-55
2023/12/11 06:10:54;;;;;;;1.15;0.93;;;;;;;;;;4918270;29;20043;-57
2023/12/11 06:13:20;;;;;;;0.63;0.50;;;;;;;;;;4919081;29;20043;-57
2023/12/11 06:15:46;;;;;;;0.57;0.57;;;;;;;;;;4919272;29;20043;-55
2023/12/11 06:18:13;;;;;;;1.20;0.57;;;;;;;;;;4930735;29;20032;-58
2023/12/11 06:20:39;;;;;;;0.60;0.50;;;;;;;;;;4904103;29;20051;-57
2023/12/11 06:23:05;;;;;;;1.27;0.80;;;;;;;;;;4934766;29;20039;-56
2023/12/11 06:25:31;;;;;;;0.88;0.60;;;;;;;;;;4918361;29;20047;-55
2023/12/11 06:27:58;;;;;;;4.85;0.70;;;;;;;;;;4917510;29;20054;-55
2023/12/11 06:30:24;;;;;;;0.90;0.73;;;;;;;;;;4933981;29;20046;-57
2023/12/11 06:32:50;;;;;;;6.63;0.65;;;;;;;;;;4917983;29;20031;-57
2023/12/11 06:35:16;;;;;;;1.60;1.05;;;;;;;;;;4932699;29;20043;-58
2023/12/11 06:37:42;;;;;;;1.08;0.65;;;;;;;;;;4932477;29;20479;-58
2023/12/11 06:40:09;;;;;;;0.70;0.50;;;;;;;;;;4913443;29;20043;-58
2023/12/11 06:42:37;;;;;;;1.10;0.60;;;;;;;;;;4906291;29;20047;-58
2023/12/11 06:45:06;;;;;;;1.30;0.57;;;;;;;;;;4914037;29;20059;-58
2023/12/11 06:47:32;;;;;;;1.40;0.63;;;;;;;;;;4900148;29;20047;-58
2023/12/11 06:49:58;;;;;;;0.90;0.45;;;;;;;;;;4916635;29;20047;-58
2023/12/11 06:52:26;;;;;;;0.75;0.65;;;;;;;;;;4927711;29;20703;-58
2023/12/11 06:54:52;;;;;;;1.20;0.60;;;;;;;;;;4916674;29;20043;-55
2023/12/11 06:57:18;;;;;;;0.98;0.60;;;;;;;;;;4899322;29;20048;-58
2023/12/11 06:59:44;;;;;;;2.88;1.67;;;;;;;;;;4918813;29;20051;-57
2023/12/11 07:02:10;;;;;;;0.68;0.40;;;;;;;;;;4915434;29;20052;-55
2023/12/11 07:04:40;;;;;;;1.15;0.50;;;;;;;;;;4915643;29;20047;-54
2023/12/11 07:07:07;;;;;;;1.50;0.60;;;;;;;;;;4931384;29;20038;-54
2023/12/11 07:09:33;;;;;;;0.60;0.57;;;;;;;;;;4913726;29;20039;-53
2023/12/11 07:11:59;;;;;;;1.60;0.90;;;;;;;;;;4910061;29;20040;-54
2023/12/11 07:14:25;;;;;;;2.15;1.13;;;;;;;;;;4900058;29;20040;-58
2023/12/11 07:16:52;;;;;;;0.93;0.60;;;;;;;;;;4926810;29;20043;-55
2023/12/11 07:19:21;;;;;;;1.50;1.35;;;;;;;;;;4882167;29;20055;-56
2023/12/11 07:21:47;;;;;;;3.22;1.35;;;;;;;;;;4930300;29;20048;-54
2023/12/11 07:24:14;;;;;;;1.80;1.50;;;;;;;;;;4894595;29;20043;-58
2023/12/11 07:26:40;;;;;;;3.03;1.70;;;;;;;;;;4931926;29;20399;-54
2023/12/11 07:29:07;;;;;;;3.17;1.50;;;;;;;;;;4933208;29;20495;-56
2023/12/11 07:31:34;;;;;;;1.00;0.63;;;;;;;;;;4932547;29;20032;-54
2023/12/11 07:34:01;;;;;;;3.83;1.73;;;;;;;;;;4911540;29;20147;-56
2023/12/11 07:36:27;;;;;;;1.98;1.00;;;;;;;;;;4897979;29;20062;-55
2023/12/11 07:38:53;;;;;;;1.60;0.90;;;;;;;;;;4904778;29;20034;-56
2023/12/11 07:41:23;;;;;;;0.75;0.60;;;;;;;;;;4915437;29;20673;-54
2023/12/11 07:43:50;;;;;;;1.45;0.60;;;;;;;;;;4917284;29;20395;-56
2023/12/11 07:46:20;;;;;;;1.67;1.00;;;;;;;;;;4897954;29;20052;-57
2023/12/11 07:48:46;;;;;;;0.60;0.55;;;;;;;;;;4913822;29;20484;-57
2023/12/11 07:51:25;;;;;;;1.10;0.82;;;;;;;;;;4929636;29;20411;-55
2023/12/11 07:53:54;;;;;;;3.03;1.05;;;;;;;;;;4909565;29;20059;-55
2023/12/11 07:56:24;;;;;;;6.68;3.22;;;;;;;;;;4911433;29;20048;-58
2023/12/11 07:58:51;;;;;;;0.68;0.60;;;;;;;;;;4912059;29;20039;-57
2023/12/11 08:01:18;;;;;;;0.88;0.60;;;;;;;;;;4933177;29;20047;-55
2023/12/11 08:03:44;;;;;;;4.10;1.52;;;;;;;;;;4914669;29;20032;-55
2023/12/11 08:06:10;;;;;;;1.67;0.70;;;;;;;;;;4928487;29;20059;-56
2023/12/11 08:08:42;;;;;;;2.10;0.85;;;;;;;;;;4911404;29;20403;-56
2023/12/11 08:11:21;;;;;;;0.43;0.32;;;;;;;;;;4930672;29;20508;-56
2023/12/11 08:13:48;;;;;;;0.35;0.32;;;;;;;;;;4928810;29;20046;-57
2023/12/11 08:16:15;;;;;;;2.35;0.50;;;;;;;;;;4930725;29;20058;-60
2023/12/11 08:18:43;;;;;;;2.03;0.70;;;;;;;;;;4895725;29;20070;-57
2023/12/11 08:21:09;;;;;;;1.90;0.60;;;;;;;;;;4913346;29;20522;-56
2023/12/11 08:23:38;;;;;;;1.13;0.60;;;;;;;;;;4911395;29;20051;-54
2023/12/11 08:26:05;;;;;;;1.20;0.43;;;;;;;;;;4897654;29;20035;-56
2023/12/11 08:28:31;;;;;;;2.17;0.65;;;;;;;;;;4930094;29;20113;-59
2023/12/11 08:30:58;;;;;;;0.73;0.52;;;;;;;;;;4931254;29;20051;-58
2023/12/11 08:33:24;;;;;;;2.55;0.63;;;;;;;;;;4912763;29;20051;-58
2023/12/11 08:35:50;;;;;;;1.75;0.80;;;;;;;;;;4926227;29;20502;-57
2023/12/11 08:38:17;;;;;;;1.58;0.60;;;;;;;;;;4909576;29;20051;-58
2023/12/11 08:40:44;;;;;;;0.85;0.50;;;;;;;;;;4927046;29;20050;-57
2023/12/11 08:43:13;;;;;;;0.60;0.50;;;;;;;;;;4906234;29;20039;-55
2023/12/11 08:45:40;;;;;;;1.30;0.77;;;;;;;;;;4910987;29;20032;-57
2023/12/11 08:48:06;;;;;;;1.65;0.57;;;;;;;;;;4913009;29;20055;-57
2023/12/11 08:50:32;;;;;;;2.00;0.70;;;;;;;;;;4894339;29;20035;-57
2023/12/11 08:53:00;;;;;;;1.27;0.75;;;;;;;;;;4929011;29;20047;-58
2023/12/11 08:55:28;;;;;;;2.05;0.60;;;;;;;;;;4912808;29;20046;-58
2023/12/11 08:57:55;;;;;;;0.63;0.52;;;;;;;;;;4916111;29;20476;-55
2023/12/11 09:00:22;;;;;;;0.50;0.47;;;;;;;;;;4914241;29;20050;-54
2023/12/11 09:02:48;;;;;;;1.05;0.63;;;;;;;;;;4910920;29;20047;-57
2023/12/11 09:05:15;;;;;;;1.70;0.80;;;;;;;;;;4907266;29;20052;-55
2023/12/11 09:07:42;;;;;;;2.05;1.10;;;;;;;;;;4909333;29;20116;-60
2023/12/11 09:10:08;;;;;;;2.38;0.95;;;;;;;;;;4928426;29;20419;-57
2023/12/11 09:12:36;;;;;;;6.20;3.15;;;;;;;;;;4913232;29;20051;-57
2023/12/11 09:15:03;;;;;;;9.32;4.55;;;;;;;;;;4905285;29;20036;-55
2023/12/11 09:17:31;;;;;;;4.20;2.22;;;;;;;;;;4915476;29;20040;-55
2023/12/11 09:19:58;;;;;;;3.28;1.60;;;;;;;;;;4928148;29;20043;-57
2023/12/11 09:22:24;;;;;;;8.95;4.00;;;;;;;;;;4907771;29;20044;-55
2023/12/11 09:24:51;;;;;;;1.70;1.00;;;;;;;;;;4929581;29;20048;-59
2023/12/11 09:27:17;;;;;;;2.30;1.00;;;;;;;;;;4926359;29;20050;-55
2023/12/11 09:29:43;;;;;;;1.73;1.08;;;;;;;;;;4932314;29;20031;-55
2023/12/11 09:32:10;;;;;;;1.95;0.90;;;;;;;;;;4898019;29;20051;-57
2023/12/11 09:34:36;;;;;;;1.63;0.85;;;;;;;;;;4914349;29;20058;-59
2023/12/11 09:37:02;;;;;;;1.30;1.08;;;;;;;;;;4930320;29;20047;-55
2023/12/11 09:39:29;;;;;;;2.25;1.02;;;;;;;;;;4904217;29;20604;-55
2023/12/11 09:41:55;;;;;;;1.70;0.80;;;;;;;;;;4919176;29;20063;-57
2023/12/11 09:44:22;;;;;;;0.85;0.60;;;;;;;;;;4916139;29;20381;-55
2023/12/11 09:46:53;;;;;;;2.25;0.88;;;;;;;;;;4933543;29;20032;-58
2023/12/11 09:49:20;;;;;;;1.67;0.63;;;;;;;;;;4934627;29;20035;-59
2023/12/11 09:51:46;;;;;;;1.92;0.50;;;;;;;;;;4935311;29;20067;-57
2023/12/11 09:54:13;;;;;;;1.02;0.70;;;;;;;;;;4927816;29;20204;-57
2023/12/11 09:56:40;;;;;;;3.38;0.88;;;;;;;;;;4926358;29;20056;-58
2023/12/11 09:59:09;;;;;;;1.42;1.00;;;;;;;;;;4898343;29;20040;-56
2023/12/11 10:01:35;;;;;;;1.30;0.77;;;;;;;;;;4894626;29;20055;-59
2023/12/11 10:04:01;;;;;;;2.67;0.70;;;;;;;;;;4924691;29;20048;-55
2023/12/11 10:06:28;;;;;;;6.07;1.50;;;;;;;;;;4917864;23;20060;-58
2023/12/11 10:08:55;;;;;;;2.28;1.50;;;;;;;;;;4904482;29;20218;-58
2023/12/11 10:11:26;;;;;;;1.88;1.15;;;;;;;;;;4908325;29;20044;-58
2023/12/11 10:13:52;;;;;;;2.50;0.93;;;;;;;;;;4908259;29;20035;-57
2023/12/11 10:16:33;;;;;;;0.68;0.60;;;;;;;;;;4899396;29;20047;-59
2023/12/11 10:19:02;;;;;;;2.58;1.30;;;;;;;;;;4915240;29;20024;-58
2023/12/11 10:21:37;;;;;;;;;;;;;;;;;;4915342;29;20055;-58
2023/12/11 10:24:09;;;;;;;2.85;1.35;;;;;;;;;;4916041;29;19915;-58
2023/12/11 10:26:38;;;;;;;1.13;0.60;;;;;;;;;;4915651;29;20048;-57
2023/12/11 10:29:25;;;;;;;3.80;1.10;;;;;;;;;;4914257;29;20032;-57
2023/12/11 10:31:53;;;;;;;6.57;4.60;;;;;;;;;;4913723;29;20484;-58
2023/12/11 10:34:38;;;;;;;3.78;1.40;;;;;;;;;;4913658;29;20040;-57
2023/12/11 10:37:05;;;;;;;2.28;1.13;;;;;;;;;;4912564;29;20063;-57
2023/12/11 10:39:31;;;;;;;3.13;0.77;;;;;;;;;;4914389;29;20040;-55
2023/12/11 10:42:11;;;;;;;2.33;1.38;;;;;;;;;;4898568;29;20039;-57
2023/12/11 10:44:38;;;;;;;2.42;1.40;;;;;;;;;;4914597;29;20055;-59
2023/12/11 10:47:04;;;;;;;1.77;0.70;;;;;;;;;;4914559;29;20508;-62
2023/12/11 10:49:31;;;;;;;1.73;0.95;;;;;;;;;;4914436;29;20040;-54
2023/12/11 10:51:57;;;;;;;2.03;1.00;;;;;;;;;;4913959;29;20123;-57
2023/12/11 10:54:24;;;;;;;1.85;1.00;;;;;;;;;;4914221;29;20040;-55
2023/12/11 10:56:51;;;;;;;1.50;0.88;;;;;;;;;;4912519;29;20044;-55
2023/12/11 10:59:17;;;;;;;4.18;1.10;;;;;;;;;;4914554;29;20043;-59
2023/12/11 11:01:46;;;;;;;1.33;0.75;;;;;;;;;;4896264;29;20054;-57
2023/12/11 11:04:14;;;;;;;2.72;0.88;;;;;;;;;;4914754;29;20039;-55
2023/12/11 11:06:55;;;;;;;1.65;0.80;;;;;;;;;;4912429;29;20055;-57
2023/12/11 11:09:44;;;;;;;1.80;0.80;;;;;;;;;;4912648;29;20040;-57
2023/12/11 11:12:23;;;;;;;1.17;0.68;;;;;;;;;;4912824;29;20048;-58
2023/12/11 11:14:49;;;;;;;1.38;0.70;;;;;;;;;;4914724;29;20576;-57
2023/12/11 11:17:18;;;;;;;3.85;0.95;;;;;;;;;;4914975;29;20059;-56
2023/12/11 11:20:15;;;;;;;1.80;0.88;;;;;;;;;;4925394;29;20036;-57
2023/12/11 11:22:42;;;;;;;2.00;0.85;;;;;;;;;;4911059;29;20055;-58
2023/12/11 11:25:29;;;;;;;1.52;0.63;;;;;;;;;;4929651;29;20056;-55
2023/12/11 11:27:56;;;;;;;1.35;0.70;;;;;;;;;;4910997;29;20055;-56
2023/12/11 11:30:48;;;;;;;2.45;1.17;;;;;;;;;;4914679;29;20052;-57
2023/12/11 11:33:14;;;;;;;1.55;0.60;;;;;;;;;;4913835;29;20031;-57
2023/12/11 11:35:52;;;;;;;0.75;0.45;;;;;;;;;;4900246;29;20051;-55
2023/12/11 11:38:19;;;;;;;1.95;1.38;;;;;;;;;;4912109;29;20571;-54
2023/12/11 11:40:48;;;;;;;1.08;0.80;;;;;;;;;;4912806;29;20035;-55
2023/12/11 11:43:15;;;;;;;1.50;0.57;;;;;;;;;;4913859;29;20377;-54
2023/12/11 11:45:43;;;;;;;1.13;0.60;;;;;;;;;;4912866;29;20109;-54
2023/12/11 11:48:09;;;;;;;0.98;0.40;;;;;;;;;;4914918;29;20055;-56
2023/12/11 11:50:35;;;;;;;1.35;0.50;;;;;;;;;;4912680;29;20485;-55
2023/12/11 11:53:06;;;;;;;0.47;0.40;;;;;;;;;;4915068;29;20059;-56
2023/12/11 11:55:33;;;;;;;0.75;0.40;;;;;;;;;;4906591;29;20051;-57
2023/12/11 11:57:59;;;;;;;1.35;0.50;;;;;;;;;;4913026;29;20042;-55
2023/12/11 12:00:31;;;;;;;0.63;0.57;;;;;;;;;;4896060;29;20035;-58
2023/12/11 12:03:00;;;;;;;1.85;1.10;;;;;;;;;;4915244;29;20055;-55
2023/12/11 12:05:26;;;;;;;2.70;1.52;;;;;;;;;;4913667;29;20044;-60
2023/12/11 12:07:56;;;;;;;1.38;0.80;;;;;;;;;;4915386;29;20044;-55
2023/12/11 12:10:22;;;;;;;1.00;0.75;;;;;;;;;;4915017;29;20047;-60
2023/12/11 12:12:55;;;;;;;1.63;0.50;;;;;;;;;;4912782;29;20044;-57
2023/12/11 12:15:22;;;;;;;2.05;0.73;;;;;;;;;;4882410;29;20040;-56
2023/12/11 12:17:49;;;;;;;1.83;0.70;;;;;;;;;;4913843;29;20060;-59
2023/12/11 12:20:19;;;;;;;2.67;0.65;;;;;;;;;;4896485;29;20056;-58
2023/12/11 12:23:02;;;;;;;0.93;0.50;;;;;;;;;;4913887;29;20044;-58
2023/12/11 12:25:30;;;;;;;1.95;0.70;;;;;;;;;;4911494;29;20044;-57
2023/12/11 12:28:02;;;;;;;2.80;0.98;;;;;;;;;;4912782;29;20052;-58
2023/12/11 12:30:29;;;;;;;3.88;0.88;;;;;;;;;;4896043;29;20039;-59
2023/12/11 12:32:56;;;;;;;3.45;1.20;;;;;;;;;;4912569;29;20052;-58
2023/12/11 12:35:23;;;;;;;3.53;1.50;;;;;;;;;;4913206;29;20043;-60
2023/12/11 12:37:50;;;;;;;2.60;1.23;;;;;;;;;;4911613;29;20047;-55
2023/12/11 12:40:17;;;;;;;2.67;1.08;;;;;;;;;;4913644;29;20028;-59
2023/12/11 12:42:44;;;;;;;1.92;0.75;;;;;;;;;;4913322;29;20047;-56
2023/12/11 12:45:11;;;;;;;2.47;0.90;;;;;;;;;;4911213;29;20044;-59
2023/12/11 12:47:46;;;;;;;1.75;0.88;;;;;;;;;;4913109;29;20043;-57
2023/12/11 12:50:23;;;;;;;1.23;1.00;;;;;;;;;;4913214;29;20051;-59
2023/12/11 12:52:49;;;;;;;2.30;0.60;;;;;;;;;;4896808;29;20048;-58
2023/12/11 12:55:16;;;;;;;3.92;0.88;;;;;;;;;;4912315;29;20036;-56
2023/12/11 12:57:43;;;;;;;2.90;1.38;;;;;;;;;;4912310;29;20044;-57
2023/12/11 13:00:19;;;;;;;2.78;1.40;;;;;;;;;;4912450;29;20040;-57
2023/12/11 13:02:49;;;;;;;2.47;0.60;;;;;;;;;;4910634;29;20035;-57
2023/12/11 13:05:15;;;;;;;2.33;0.80;;;;;;;;;;4912526;29;20060;-58
2023/12/11 13:07:44;;;;;;;2.70;0.95;;;;;;;;;;4911862;29;20409;-59
2023/12/11 13:10:11;;;;;;;3.33;0.83;;;;;;;;;;4896281;29;20035;-56
2023/12/11 13:12:37;;;;;;;2.55;0.73;;;;;;;;;;4910680;29;20047;-57
2023/12/11 13:15:06;;;;;;;2.15;0.98;;;;;;;;;;4917285;29;20048;-58
2023/12/11 13:17:33;;;;;;;2.80;0.90;;;;;;;;;;4915381;29;20044;-61
2023/12/11 13:20:00;;;;;;;3.30;0.60;;;;;;;;;;4915456;29;20287;-57
2023/12/11 13:22:26;;;;;;;2.85;0.75;;;;;;;;;;4913146;29;20072;-58
2023/12/11 13:24:52;;;;;;;1.85;0.82;;;;;;;;;;4916555;29;20051;-59
2023/12/11 13:27:21;;;;;;;1.58;0.70;;;;;;;;;;4914686;29;20040;-58
2023/12/11 13:29:47;;;;;;;4.45;1.00;;;;;;;;;;4914604;29;20036;-59
2023/12/11 13:32:15;;;;;;;1.77;0.80;;;;;;;;;;4915627;29;20048;-59
2023/12/11 13:34:41;;;;;;;3.30;0.80;;;;;;;;;;4911043;29;20407;-55
2023/12/11 13:37:07;;;;;;;3.72;0.80;;;;;;;;;;4915103;29;20048;-56
2023/12/11 13:39:35;;;;;;;1.58;0.93;;;;;;;;;;4912571;29;20412;-58
2023/12/11 13:42:01;;;;;;;2.00;0.90;;;;;;;;;;4899685;29;20050;-57
2023/12/11 13:44:27;;;;;;;1.63;0.85;;;;;;;;;;4915099;29;20059;-59
2023/12/11 13:46:53;;;;;;;1.80;0.70;;;;;;;;;;4915003;29;20036;-57
2023/12/11 13:49:20;;;;;;;4.57;1.35;;;;;;;;;;4914552;29;20044;-58
2023/12/11 13:51:46;;;;;;;4.25;1.40;;;;;;;;;;4915797;29;20039;-57
2023/12/11 13:54:13;;;;;;;3.72;1.40;;;;;;;;;;4916319;29;20036;-57
2023/12/11 13:56:39;;;;;;;2.53;1.10;;;;;;;;;;4904055;29;20048;-55
2023/12/11 13:59:05;;;;;;;2.90;1.25;;;;;;;;;;4911290;29;20044;-55
2023/12/11 14:01:31;;;;;;;3.30;1.42;;;;;;;;;;4911928;29;20541;-56
2023/12/11 14:03:57;;;;;;;2.47;0.95;;;;;;;;;;4913286;29;20044;-60
2023/12/11 14:06:24;;;;;;;3.65;1.20;;;;;;;;;;4915918;29;20040;-59
2023/12/11 14:08:51;;;;;;;3.08;1.38;;;;;;;;;;4918300;29;20520;-56
2023/12/11 14:11:18;;;;;;;2.05;0.70;;;;;;;;;;4915057;29;20040;-59
2023/12/11 14:13:44;;;;;;;1.40;0.70;;;;;;;;;;4914797;29;20052;-59
2023/12/11 14:16:11;;;;;;;2.63;0.73;;;;;;;;;;4914194;29;20055;-58
2023/12/11 14:18:40;;;;;;;3.80;0.70;;;;;;;;;;4911286;29;20051;-55
2023/12/11 14:21:10;;;;;;;4.03;1.15;;;;;;;;;;4914386;29;20055;-57
2023/12/11 14:23:38;;;;;;;2.15;0.75;;;;;;;;;;4913931;29;20400;-59
2023/12/11 14:26:04;;;;;;;2.35;1.13;;;;;;;;;;4914406;29;20488;-55
2023/12/11 14:28:30;;;;;;;3.50;1.70;;;;;;;;;;4915416;29;20036;-58
2023/12/11 14:30:56;;;;;;;4.45;1.70;;;;;;;;;;4899225;29;20044;-59
2023/12/11 14:33:22;;;;;;;3.95;1.40;;;;;;;;;;4916298;29;20048;-59
2023/12/11 14:35:48;;;;;;;4.95;1.70;;;;;;;;;;4913862;29;20404;-57
2023/12/11 14:38:16;;;;;;;4.32;1.52;;;;;;;;;;4915762;29;20048;-55
2023/12/11 14:40:42;;;;;;;4.57;1.25;;;;;;;;;;4917540;29;20040;-56
2023/12/11 14:43:08;;;;;;;3.72;1.33;;;;;;;;;;4914292;29;20492;-59
2023/12/11 14:45:34;;;;;;;4.55;1.10;;;;;;;;;;4923873;29;20044;-57